Time;durP1;ratioP1;P1;durP2;ratioP2;P2;SDS_P1;SDS_P2;PMS_P1;PMS_P2;Temp;Humidity;BMP_temperature;BMP_pressure;BME280_temperature;BME280_humidity;BME280_pressure;Samples;Min_cycle;Max_cycle;Signal;HPM_P1;HPM_P2
2022/12/28 00:01:32;;;;;;;2.83;1.35;;;34.10;48.90;;;;;;5069342;28;20266;-75
2022/12/28 00:04:01;;;;;;;3.05;1.40;;;34.90;45.80;;;;;;5055944;28;20053;-75
2022/12/28 00:06:31;;;;;;;5.15;1.42;;;35.10;45.60;;;;;;5042826;28;20032;-76
2022/12/28 00:08:59;;;;;;;3.10;1.48;;;35.30;45.30;;;;;;5046664;28;20398;-76
2022/12/28 00:11:27;;;;;;;5.38;1.65;;;35.30;45.40;;;;;;5047224;28;20044;-75
2022/12/28 00:13:56;;;;;;;3.17;1.50;;;35.70;46.10;;;;;;5029163;28;20037;-76
2022/12/28 00:16:31;;;;;;;4.80;1.67;;;35.70;41.50;;;;;;5039617;28;20478;-76
2022/12/28 00:19:00;;;;;;;3.88;2.03;;;35.00;43.20;;;;;;5046433;28;20029;-76
2022/12/28 00:21:28;;;;;;;3.20;1.77;;;35.00;42.80;;;;;;5047765;28;20033;-76
2022/12/28 00:23:57;;;;;;;5.03;1.00;;;34.80;43.80;;;;;;5032233;28;20578;-75
2022/12/28 00:26:29;;;;;;;2.90;1.23;;;34.20;42.60;;;;;;5028570;28;20092;-76
2022/12/28 00:28:58;;;;;;;5.43;1.55;;;34.40;43.90;;;;;;5035665;28;20029;-76
2022/12/28 00:31:26;;;;;;;2.60;1.60;;;34.70;42.80;;;;;;5031533;28;20210;-76
2022/12/28 00:33:53;;;;;;;2.92;1.40;;;34.80;44.40;;;;;;5035532;28;20104;-74
2022/12/28 00:36:20;;;;;;;2.30;1.35;;;34.80;42.70;;;;;;5042192;28;20029;-74
2022/12/28 00:38:48;;;;;;;4.03;1.70;;;35.10;41.50;;;;;;5039118;28;20041;-77
2022/12/28 00:41:15;;;;;;;3.97;1.40;;;35.50;41.40;;;;;;5030347;28;20113;-77
2022/12/28 00:43:43;;;;;;;3.28;1.00;;;35.80;41.50;;;;;;5040667;28;20163;-75
2022/12/28 00:46:10;;;;;;;4.22;1.40;;;36.30;40.70;;;;;;5046635;28;20465;-75
2022/12/28 00:48:37;;;;;;;2.47;1.30;;;36.90;40.50;;;;;;5044927;28;20048;-78
2022/12/28 00:51:11;;;;;;;3.05;1.48;;;37.30;41.90;;;;;;5052415;28;20020;-75
2022/12/28 00:53:39;;;;;;;7.55;1.88;;;37.70;41.90;;;;;;5041367;28;20025;-76
2022/12/28 00:56:14;;;;;;;2.00;1.10;;;38.10;39.70;;;;;;5043862;28;20029;-72
2022/12/28 00:58:42;;;;;;;2.45;1.00;;;38.20;39.00;;;;;;5044061;28;20082;-76
2022/12/28 01:01:15;;;;;;;2.45;1.40;;;38.70;38.70;;;;;;5043539;28;20029;-76
2022/12/28 01:03:43;;;;;;;4.20;0.90;;;38.90;36.20;;;;;;5034791;28;20037;-76
2022/12/28 01:06:13;;;;;;;3.65;0.95;;;38.10;36.70;;;;;;5043099;28;20025;-75
2022/12/28 01:08:41;;;;;;;3.25;1.10;;;37.50;36.70;;;;;;5043912;28;20025;-75
2022/12/28 01:11:11;;;;;;;1.98;1.17;;;37.40;38.80;;;;;;5052420;28;20024;-74
2022/12/28 01:13:38;;;;;;;1.98;0.93;;;37.80;35.90;;;;;;5036161;28;20036;-76
2022/12/28 01:16:24;;;;;;;2.03;0.90;;;36.90;38.30;;;;;;5032583;28;20112;-67
2022/12/28 01:18:53;;;;;;;1.63;0.60;;;36.70;35.70;;;;;;5032193;28;20029;-75
2022/12/28 01:21:23;;;;;;;2.15;0.80;;;36.80;37.10;;;;;;5032648;28;20041;-76
2022/12/28 01:23:54;;;;;;;0.68;0.50;;;37.20;36.70;;;;;;5032264;28;20020;-77
2022/12/28 01:26:22;;;;;;;0.68;0.52;;;37.70;37.00;;;;;;5032269;28;20018;-77
2022/12/28 01:28:49;;;;;;;3.25;1.20;;;38.20;36.80;;;;;;5032694;28;20080;-76
2022/12/28 01:31:19;;;;;;;3.13;1.10;;;38.10;36.90;;;;;;5052102;28;20033;-70
2022/12/28 01:33:46;;;;;;;4.10;1.05;;;37.60;36.20;;;;;;5038700;28;20035;-72
2022/12/28 01:36:14;;;;;;;1.10;0.63;;;37.40;37.40;;;;;;5062977;28;20037;-72
2022/12/28 01:38:42;;;;;;;1.95;0.50;;;37.50;37.20;;;;;;5044891;28;20032;-72
2022/12/28 01:41:11;;;;;;;1.98;0.85;;;38.00;36.80;;;;;;5071732;28;20040;-72
2022/12/28 01:43:45;;;;;;;3.33;1.25;;;38.00;35.30;;;;;;5069423;28;20029;-71
2022/12/28 01:46:17;;;;;;;2.25;1.10;;;37.50;35.90;;;;;;5071731;28;20115;-72
2022/12/28 01:49:06;;;;;;;1.98;0.98;;;36.90;36.30;;;;;;5070015;28;20048;-73
2022/12/28 01:51:43;;;;;;;4.72;1.20;;;36.00;38.00;;;;;;5059683;28;20028;-73
2022/12/28 01:54:10;;;;;;;1.45;1.00;;;36.20;37.00;;;;;;5047322;28;20022;-71
2022/12/28 01:56:38;;;;;;;1.77;0.90;;;36.20;38.80;;;;;;5030308;28;20042;-71
2022/12/28 01:59:06;;;;;;;1.77;0.95;;;36.70;38.20;;;;;;5035424;28;20427;-64
2022/12/28 02:01:34;;;;;;;1.73;0.90;;;37.00;37.60;;;;;;5046247;28;20063;-64
2022/12/28 02:04:01;;;;;;;1.75;0.95;;;37.00;37.50;;;;;;5047166;28;20034;-65
2022/12/28 02:06:28;;;;;;;1.73;0.90;;;36.50;39.10;;;;;;5037581;28;20424;-64
2022/12/28 02:08:56;;;;;;;2.83;0.85;;;36.20;38.80;;;;;;5032959;28;20486;-63
2022/12/28 02:11:23;;;;;;;1.98;0.95;;;36.40;35.80;;;;;;5037906;28;20044;-61
2022/12/28 02:13:52;;;;;;;1.70;0.90;;;36.40;37.80;;;;;;5039434;28;20079;-61
2022/12/28 02:16:19;;;;;;;2.58;0.85;;;36.70;36.20;;;;;;5040584;28;20366;-64
2022/12/28 02:18:47;;;;;;;1.13;0.73;;;37.00;36.30;;;;;;5040227;28;20040;-64
2022/12/28 02:21:23;;;;;;;1.75;1.02;;;37.20;38.90;;;;;;5052000;28;20071;-63
2022/12/28 02:23:53;;;;;;;3.20;0.82;;;37.70;36.30;;;;;;5059745;28;20029;-63
2022/12/28 02:26:38;;;;;;;2.10;1.20;;;38.20;35.10;;;;;;5049396;28;20025;-63
2022/12/28 02:29:33;;;;;;;2.00;0.85;;;38.60;35.10;;;;;;5041755;28;20025;-64
2022/12/28 02:32:25;;;;;;;4.15;0.90;;;38.60;37.00;;;;;;5058236;28;20028;-63
2022/12/28 02:35:01;;;;;;;1.25;0.85;;;38.30;34.80;;;;;;5066954;28;20423;-63
2022/12/28 02:37:52;;;;;;;3.60;1.20;;;37.50;34.90;;;;;;5058515;28;20167;-65
2022/12/28 02:40:31;;;;;;;0.95;0.70;;;37.10;35.10;;;;;;5053553;28;20041;-64
2022/12/28 02:43:00;;;;;;;2.80;0.85;;;37.00;36.50;;;;;;5036639;28;20064;-63
2022/12/28 02:51:38;;;;;;;0.85;0.60;;;38.10;38.20;;;;;;5044878;28;20504;-64
2022/12/28 02:58:08;;;;;;;1.75;1.02;;;39.00;36.50;;;;;;5058410;28;20035;-63
2022/12/28 03:01:04;;;;;;;3.47;0.90;;;39.50;35.10;;;;;;5063375;28;20520;-64
2022/12/28 03:03:39;;;;;;;1.30;0.85;;;39.70;36.00;;;;;;5046985;28;20490;-64
2022/12/28 03:09:27;;;;;;;2.17;0.93;;;40.10;36.20;;;;;;5035877;28;20524;-65
2022/12/28 03:12:12;;;;;;;1.30;0.80;;;40.40;35.80;;;;;;5061756;28;20024;-65
2022/12/28 03:14:54;;;;;;;2.45;1.00;;;40.70;35.20;;;;;;5054361;28;20378;-65
2022/12/28 03:31:34;;;;;;;1.77;0.90;;;39.80;34.50;;;;;;5045115;28;20027;-63
2022/12/28 03:34:08;;;;;;;1.40;0.90;;;39.80;35.70;;;;;;5060647;28;20024;-65
2022/12/28 03:37:07;;;;;;;2.15;1.00;;;39.90;36.40;;;;;;5053741;28;20056;-64
2022/12/28 03:39:40;;;;;;;1.77;1.00;;;39.40;33.50;;;;;;5057999;28;20064;-63
2022/12/28 03:45:54;;;;;;;1.63;0.68;;;38.60;35.10;;;;;;5042995;28;20083;-63
2022/12/28 03:48:22;;;;;;;2.20;1.00;;;38.40;34.80;;;;;;5049693;28;20049;-63
2022/12/28 03:50:50;;;;;;;1.70;0.80;;;38.60;36.10;;;;;;5064460;28;20357;-62
2022/12/28 03:53:23;;;;;;;1.77;0.82;;;38.40;35.00;;;;;;5047567;28;20022;-64
2022/12/28 03:55:50;;;;;;;2.10;0.88;;;38.40;36.70;;;;;;5050439;28;20103;-64
2022/12/28 03:58:19;;;;;;;2.85;1.30;;;39.00;37.90;;;;;;5051884;28;20031;-63
2022/12/28 04:00:46;;;;;;;1.30;0.90;;;39.00;39.00;;;;;;5051936;28;20032;-63
2022/12/28 04:03:14;;;;;;;1.98;0.90;;;39.30;36.70;;;;;;5047873;28;20021;-64
2022/12/28 04:05:41;;;;;;;2.40;0.90;;;39.70;36.50;;;;;;5040441;28;20022;-65
2022/12/28 04:08:08;;;;;;;2.55;1.05;;;39.90;35.70;;;;;;5036777;28;20017;-65
2022/12/28 04:10:35;;;;;;;1.48;0.80;;;40.30;35.60;;;;;;5033044;28;20032;-64
2022/12/28 04:13:03;;;;;;;11.15;1.20;;;40.20;35.00;;;;;;5038254;28;20030;-65
2022/12/28 04:15:30;;;;;;;3.60;0.70;;;40.10;34.20;;;;;;5036691;28;20049;-65
2022/12/28 04:18:00;;;;;;;2.72;0.60;;;39.80;35.20;;;;;;5037022;28;20021;-66
2022/12/28 04:20:28;;;;;;;1.90;1.00;;;39.50;35.50;;;;;;5036202;28;20020;-66
2022/12/28 04:22:55;;;;;;;2.10;1.02;;;39.00;36.40;;;;;;5039437;28;20052;-65
2022/12/28 04:25:22;;;;;;;4.07;1.25;;;39.00;38.50;;;;;;5045974;28;20436;-65
2022/12/28 04:27:50;;;;;;;9.52;1.20;;;38.40;40.90;;;;;;5038486;28;20116;-64
2022/12/28 04:30:17;;;;;;;1.55;0.77;;;38.30;40.60;;;;;;5058940;28;20019;-68
2022/12/28 04:32:44;;;;;;;2.30;1.08;;;37.90;42.50;;;;;;5048635;28;20452;-69
2022/12/28 04:35:11;;;;;;;3.17;1.20;;;37.60;42.60;;;;;;5050166;28;20067;-64
2022/12/28 04:37:38;;;;;;;1.58;0.90;;;37.60;43.00;;;;;;5037857;28;20030;-68
2022/12/28 04:40:06;;;;;;;4.28;1.15;;;37.80;42.90;;;;;;5040259;28;20124;-64
2022/12/28 04:42:36;;;;;;;3.38;1.33;;;37.80;42.10;;;;;;5038928;28;20079;-65
2022/12/28 04:45:04;;;;;;;2.15;1.00;;;37.20;42.80;;;;;;5047011;28;20497;-65
2022/12/28 04:47:32;;;;;;;4.05;1.08;;;37.00;42.70;;;;;;5054493;28;20445;-65
2022/12/28 04:49:59;;;;;;;2.03;0.93;;;36.90;42.20;;;;;;5054290;28;20108;-65
2022/12/28 04:52:26;;;;;;;1.83;1.10;;;36.50;43.30;;;;;;5060079;28;20138;-65
2022/12/28 04:54:53;;;;;;;2.30;0.80;;;36.60;44.10;;;;;;5057676;28;20061;-64
2022/12/28 04:57:20;;;;;;;2.58;1.00;;;36.50;43.40;;;;;;5063308;28;20354;-65
2022/12/28 04:59:50;;;;;;;1.77;1.00;;;36.30;43.50;;;;;;5055424;28;20056;-64
2022/12/28 05:02:17;;;;;;;2.88;1.10;;;36.40;43.40;;;;;;5049729;28;20119;-64
2022/12/28 05:04:45;;;;;;;3.65;1.02;;;36.70;43.60;;;;;;5072507;28;20017;-64
2022/12/28 05:07:12;;;;;;;2.53;0.85;;;36.80;43.20;;;;;;5072404;28;20021;-64
2022/12/28 05:09:39;;;;;;;1.77;0.75;;;36.90;43.30;;;;;;5072819;28;20032;-64
2022/12/28 05:12:06;;;;;;;2.72;0.80;;;37.10;43.20;;;;;;5063206;28;20021;-64
2022/12/28 05:14:34;;;;;;;2.13;1.00;;;36.60;42.90;;;;;;5052341;28;20033;-65
2022/12/28 05:17:01;;;;;;;2.75;0.85;;;36.80;43.60;;;;;;5051642;28;20470;-64
2022/12/28 05:19:28;;;;;;;2.10;0.80;;;36.50;42.80;;;;;;5037002;28;20029;-63
2022/12/28 05:21:55;;;;;;;3.92;1.33;;;36.50;43.00;;;;;;5030490;28;20047;-64
2022/12/28 05:24:22;;;;;;;3.70;0.95;;;36.50;43.50;;;;;;5029802;28;20496;-64
2022/12/28 05:26:50;;;;;;;3.53;0.90;;;36.30;44.30;;;;;;5033246;28;20029;-63
2022/12/28 05:29:17;;;;;;;2.97;0.90;;;36.20;44.20;;;;;;5030408;28;20029;-64
2022/12/28 05:31:44;;;;;;;5.63;1.20;;;35.90;43.30;;;;;;5034010;28;20028;-64
2022/12/28 05:34:11;;;;;;;3.05;0.90;;;35.80;44.00;;;;;;5028976;28;20031;-64
2022/12/28 05:36:39;;;;;;;4.00;1.27;;;35.90;43.90;;;;;;5033360;28;20028;-64
2022/12/28 05:39:07;;;;;;;2.70;1.13;;;35.70;44.40;;;;;;5032953;28;20067;-65
2022/12/28 05:41:34;;;;;;;2.42;1.00;;;35.70;44.80;;;;;;5028823;28;20045;-65
2022/12/28 05:44:01;;;;;;;3.25;1.00;;;35.80;44.90;;;;;;5028020;28;20068;-64
2022/12/28 05:46:31;;;;;;;3.72;0.95;;;35.70;43.60;;;;;;5028675;28;20061;-61
2022/12/28 05:49:00;;;;;;;3.95;0.70;;;35.40;43.50;;;;;;5036083;28;20041;-63
2022/12/28 05:51:30;;;;;;;3.75;0.80;;;35.00;43.70;;;;;;5045127;28;20040;-62
2022/12/28 05:53:59;;;;;;;2.67;1.35;;;35.00;45.40;;;;;;5043693;28;20517;-61
2022/12/28 05:56:28;;;;;;;4.15;0.80;;;34.70;45.30;;;;;;5037667;28;20040;-63
2022/12/28 05:59:00;;;;;;;4.25;0.93;;;34.60;44.00;;;;;;5048799;28;20025;-62
2022/12/28 06:01:32;;;;;;;5.13;1.23;;;34.60;44.30;;;;;;5031047;28;20152;-62
2022/12/28 06:04:03;;;;;;;4.13;1.00;;;34.60;46.20;;;;;;5038179;28;20367;-63
2022/12/28 06:06:33;;;;;;;7.53;1.10;;;34.50;45.90;;;;;;5044144;28;20035;-62
2022/12/28 06:09:00;;;;;;;2.17;0.90;;;34.20;45.90;;;;;;5045229;28;20036;-63
2022/12/28 06:11:29;;;;;;;3.22;0.90;;;34.20;46.40;;;;;;5039632;28;20021;-62
2022/12/28 06:13:58;;;;;;;10.52;1.50;;;34.30;46.40;;;;;;5031254;28;20033;-62
2022/12/28 06:16:28;;;;;;;4.32;0.93;;;34.60;46.70;;;;;;5034351;28;20556;-63
2022/12/28 06:18:55;;;;;;;3.60;0.90;;;34.70;47.90;;;;;;5041267;28;20047;-60
2022/12/28 06:21:26;;;;;;;3.22;1.08;;;34.80;47.10;;;;;;5033243;28;20029;-70
2022/12/28 06:23:56;;;;;;;2.28;0.75;;;34.80;47.10;;;;;;5030943;28;20521;-66
2022/12/28 06:26:24;;;;;;;4.95;1.20;;;34.80;47.40;;;;;;5043428;28;20022;-65
2022/12/28 06:28:55;;;;;;;4.35;1.00;;;35.00;47.20;;;;;;5038689;28;20033;-66
2022/12/28 06:31:28;;;;;;;7.18;1.10;;;35.00;46.80;;;;;;5051010;28;20044;-66
2022/12/28 06:33:56;;;;;;;;;;;34.70;47.60;;;;;;5051231;28;20025;-67
2022/12/28 06:36:52;;;;;;;5.88;1.20;;;34.70;47.80;;;;;;5050793;28;19931;-62
2022/12/28 06:39:19;;;;;;;4.53;1.85;;;34.30;48.20;;;;;;5044027;28;20033;-63
2022/12/28 06:41:46;;;;;;;3.15;1.10;;;34.00;48.20;;;;;;5050759;28;20506;-64
2022/12/28 06:44:14;;;;;;;3.22;0.85;;;34.00;48.40;;;;;;5039405;28;20171;-64
2022/12/28 06:46:41;;;;;;;4.22;1.10;;;33.40;48.50;;;;;;5040757;28;20067;-65
2022/12/28 06:49:09;;;;;;;11.68;1.58;;;33.50;49.40;;;;;;5061584;28;20556;-61
2022/12/28 06:51:40;;;;;;;6.22;1.15;;;33.30;49.60;;;;;;5052907;28;20097;-64
2022/12/28 06:54:08;;;;;;;3.78;1.13;;;33.30;50.00;;;;;;5035719;28;20484;-64
2022/12/28 06:56:36;;;;;;;4.47;1.13;;;32.90;50.50;;;;;;5042078;28;20537;-66
2022/12/28 06:59:04;;;;;;;7.00;1.08;;;32.70;51.10;;;;;;5032742;28;20041;-67
2022/12/28 07:01:39;;;;;;;3.90;1.33;;;32.90;51.40;;;;;;5030304;28;20397;-67
2022/12/28 07:04:08;;;;;;;7.55;1.40;;;32.50;51.60;;;;;;5034716;28;20797;-66
2022/12/28 07:06:38;;;;;;;4.13;1.42;;;32.60;52.50;;;;;;5039221;28;20398;-66
2022/12/28 07:09:09;;;;;;;4.90;1.25;;;32.70;52.20;;;;;;5031654;28;20557;-65
2022/12/28 07:11:37;;;;;;;4.60;1.20;;;32.80;51.60;;;;;;5030580;28;20478;-65
2022/12/28 07:14:05;;;;;;;5.30;1.15;;;32.80;50.90;;;;;;5038585;28;20029;-66
2022/12/28 07:16:32;;;;;;;5.72;1.08;;;32.70;51.50;;;;;;5038271;28;20449;-66
2022/12/28 07:19:00;;;;;;;5.70;1.77;;;32.50;52.00;;;;;;5032137;28;20025;-67
2022/12/28 07:21:31;;;;;;;7.03;1.10;;;32.20;53.30;;;;;;5028918;28;20040;-67
2022/12/28 07:23:58;;;;;;;5.57;1.40;;;32.20;52.70;;;;;;5034129;28;20552;-66
2022/12/28 07:26:28;;;;;;;4.03;1.35;;;32.10;52.90;;;;;;5037297;28;20706;-66
2022/12/28 07:28:57;;;;;;;7.65;1.75;;;31.90;54.50;;;;;;5047113;28;20512;-67
2022/12/28 07:31:34;;;;;;;4.30;1.40;;;31.80;54.50;;;;;;5035901;28;20160;-66
2022/12/28 07:34:01;;;;;;;5.80;1.77;;;31.60;54.50;;;;;;5044689;28;20091;-67
2022/12/28 07:36:31;;;;;;;5.50;1.60;;;31.40;54.50;;;;;;5038384;28;20088;-66
2022/12/28 07:38:59;;;;;;;14.27;3.97;;;31.40;55.80;;;;;;5031004;28;20018;-64
2022/12/28 07:41:29;;;;;;;7.45;2.15;;;31.30;56.60;;;;;;5030715;28;20082;-66
2022/12/28 07:43:56;;;;;;;4.53;1.80;;;31.30;57.20;;;;;;5030477;28;20389;-66
2022/12/28 07:46:27;;;;;;;4.47;1.13;;;31.20;57.20;;;;;;5040466;28;20017;-65
2022/12/28 07:48:55;;;;;;;4.93;1.13;;;31.10;56.80;;;;;;5033564;28;20400;-68
2022/12/28 07:51:31;;;;;;;4.72;1.23;;;30.90;57.20;;;;;;5034062;28;20028;-67
2022/12/28 07:54:00;;;;;;;5.07;1.00;;;30.70;58.80;;;;;;5043070;28;20088;-66
2022/12/28 07:56:28;;;;;;;6.05;1.30;;;30.60;58.40;;;;;;5049247;28;20025;-68
2022/12/28 07:58:58;;;;;;;9.38;1.92;;;30.40;58.70;;;;;;5040971;28;20071;-67
2022/12/28 08:01:28;;;;;;;6.57;1.20;;;30.10;60.00;;;;;;5031024;28;20034;-66
2022/12/28 08:04:01;;;;;;;6.30;1.58;;;29.80;60.00;;;;;;5042476;28;20397;-65
2022/12/28 08:06:30;;;;;;;5.55;1.27;;;29.60;61.40;;;;;;5034498;28;20022;-67
2022/12/28 08:08:59;;;;;;;3.78;1.10;;;29.30;62.60;;;;;;5042141;28;20025;-66
2022/12/28 08:11:32;;;;;;;5.63;1.50;;;29.10;62.90;;;;;;5043123;28;20082;-67
2022/12/28 08:14:01;;;;;;;7.82;1.48;;;29.00;61.90;;;;;;5046690;28;20063;-67
2022/12/28 08:16:31;;;;;;;4.85;1.30;;;28.80;62.80;;;;;;5046800;28;20051;-68
2022/12/28 08:18:59;;;;;;;7.55;1.70;;;28.60;63.30;;;;;;5046896;28;20025;-68
2022/12/28 08:21:30;;;;;;;5.80;1.73;;;28.50;63.70;;;;;;5046864;28;20037;-68
2022/12/28 08:23:58;;;;;;;8.57;2.28;;;28.40;65.00;;;;;;5031847;28;20021;-68
2022/12/28 08:26:31;;;;;;;8.10;2.05;;;28.30;65.70;;;;;;5029032;28;20040;-68
2022/12/28 08:29:01;;;;;;;3.90;1.17;;;28.20;66.40;;;;;;5040626;28;20033;-68
2022/12/28 08:31:36;;;;;;;8.38;1.60;;;28.10;67.00;;;;;;5046840;28;20128;-67
2022/12/28 08:34:05;;;;;;;7.78;2.28;;;28.00;68.00;;;;;;5046759;28;20108;-67
2022/12/28 08:36:32;;;;;;;7.53;1.00;;;27.90;68.70;;;;;;5033867;28;20501;-68
2022/12/28 08:39:00;;;;;;;10.13;1.80;;;27.90;69.30;;;;;;5029197;28;20108;-69
2022/12/28 08:41:29;;;;;;;8.55;2.03;;;27.80;70.10;;;;;;5029152;28;20469;-68
2022/12/28 08:43:57;;;;;;;9.68;1.85;;;27.70;71.20;;;;;;5028494;28;20039;-68
2022/12/28 08:46:33;;;;;;;7.03;2.53;;;27.60;72.30;;;;;;5026832;28;20299;-68
2022/12/28 08:49:01;;;;;;;6.97;1.63;;;27.50;73.60;;;;;;5045553;28;20124;-68
2022/12/28 08:51:32;;;;;;;8.80;2.17;;;27.40;74.70;;;;;;5034325;28;20036;-68
2022/12/28 08:54:01;;;;;;;13.35;2.38;;;27.30;76.40;;;;;;5033886;28;20031;-68
2022/12/28 08:56:31;;;;;;;15.70;1.98;;;27.10;78.20;;;;;;5037831;28;20086;-68
2022/12/28 08:58:59;;;;;;;8.65;1.92;;;27.00;80.10;;;;;;5044361;28;20633;-68
2022/12/28 09:01:29;;;;;;;11.73;2.22;;;26.80;81.40;;;;;;5046094;28;20037;-67
2022/12/28 09:03:59;;;;;;;7.70;1.92;;;26.70;83.00;;;;;;5050046;28;20020;-68
2022/12/28 09:06:37;;;;;;;11.73;2.00;;;26.60;84.40;;;;;;5049643;28;20032;-67
2022/12/28 09:09:07;;;;;;;11.23;2.40;;;26.50;85.90;;;;;;5032070;28;20564;-67
2022/12/28 09:11:36;;;;;;;8.00;1.92;;;26.30;87.70;;;;;;5042366;28;20040;-68
2022/12/28 09:14:05;;;;;;;8.20;1.48;;;26.20;89.10;;;;;;5048898;28;20017;-69
2022/12/28 09:16:33;;;;;;;8.13;2.13;;;26.10;90.00;;;;;;5041073;28;20048;-67
2022/12/28 09:19:03;;;;;;;12.38;2.40;;;26.00;90.40;;;;;;5030053;28;20064;-67
2022/12/28 09:21:33;;;;;;;9.23;2.35;;;25.90;91.00;;;;;;5029827;28;20037;-69
2022/12/28 09:24:00;;;;;;;5.63;1.55;;;25.80;91.40;;;;;;5038278;28;20025;-67
2022/12/28 09:26:31;;;;;;;6.18;1.63;;;25.70;92.20;;;;;;5047769;28;20687;-68
2022/12/28 09:29:04;;;;;;;7.10;1.45;;;25.60;92.50;;;;;;5048973;28;20432;-67
2022/12/28 09:31:35;;;;;;;12.15;2.20;;;25.50;92.90;;;;;;5031788;28;20375;-67
2022/12/28 09:34:04;;;;;;;8.55;1.90;;;25.50;93.40;;;;;;5034682;28;20178;-68
2022/12/28 09:36:34;;;;;;;10.55;2.35;;;25.40;93.60;;;;;;5047659;28;20020;-68
2022/12/28 09:39:05;;;;;;;12.48;2.20;;;25.40;94.00;;;;;;5069189;28;20025;-68
2022/12/28 09:41:39;;;;;;;13.75;2.65;;;25.30;94.10;;;;;;5047019;28;20033;-68
2022/12/28 09:44:25;;;;;;;11.52;2.17;;;25.30;94.40;;;;;;5041629;28;20486;-69
2022/12/28 09:46:59;;;;;;;9.25;1.92;;;25.20;94.70;;;;;;5038911;28;20147;-69
2022/12/28 09:50:18;;;;;;;9.63;1.95;;;25.20;95.00;;;;;;5032122;28;20069;-68
2022/12/28 09:53:14;;;;;;;7.32;2.10;;;25.20;95.30;;;;;;5023972;28;20041;-69
2022/12/28 09:55:50;;;;;;;14.82;2.40;;;25.20;95.50;;;;;;5038729;28;20029;-68
2022/12/28 09:58:18;;;;;;;7.05;2.28;;;25.20;95.80;;;;;;5046882;28;20087;-66
2022/12/28 10:00:52;;;;;;;15.68;2.88;;;25.10;95.90;;;;;;5041922;28;20057;-66
2022/12/28 10:03:48;;;;;;;13.95;2.67;;;25.10;96.20;;;;;;5034187;28;20088;-67
2022/12/28 10:06:21;;;;;;;16.20;2.10;;;25.00;96.40;;;;;;5031154;28;20029;-68
2022/12/28 10:08:58;;;;;;;15.15;2.72;;;25.00;96.70;;;;;;5040344;28;20378;-67
2022/12/28 10:11:28;;;;;;;8.45;2.30;;;24.90;97.10;;;;;;5027010;28;20650;-67
2022/12/28 10:14:01;;;;;;;10.77;2.15;;;24.80;97.30;;;;;;5028513;28;20099;-68
2022/12/28 10:16:31;;;;;;;9.98;1.77;;;24.80;97.40;;;;;;5028664;28;20028;-67
2022/12/28 10:18:59;;;;;;;8.73;2.80;;;24.70;97.70;;;;;;5028340;28;20038;-67
2022/12/28 10:21:30;;;;;;;10.25;2.88;;;24.60;98.10;;;;;;5028485;28;20037;-68
2022/12/28 10:23:58;;;;;;;16.38;2.75;;;24.50;98.40;;;;;;5028767;28;20509;-68
2022/12/28 10:26:25;;;;;;;16.75;2.47;;;24.50;98.50;;;;;;5028557;28;20132;-68
2022/12/28 10:28:56;;;;;;;8.43;2.15;;;24.50;98.80;;;;;;5030570;28;20029;-67
2022/12/28 10:31:36;;;;;;;6.50;2.13;;;24.50;98.80;;;;;;5028486;28;20033;-67
2022/12/28 10:34:24;;;;;;;7.78;1.63;;;24.40;99.10;;;;;;5028825;28;20040;-67
2022/12/28 10:36:53;;;;;;;10.25;1.70;;;24.30;99.40;;;;;;5028452;28;20029;-70
2022/12/28 10:39:30;;;;;;;16.48;2.50;;;24.30;99.60;;;;;;5034186;28;20053;-72
2022/12/28 10:42:02;;;;;;;7.93;1.77;;;24.20;99.60;;;;;;5033832;28;20037;-71
2022/12/28 10:44:34;;;;;;;9.50;1.98;;;24.20;99.90;;;;;;5041433;28;20028;-71
2022/12/28 10:47:16;;;;;;;10.73;1.92;;;24.20;99.80;;;;;;5048533;28;20051;-71
2022/12/28 10:49:50;;;;;;;9.32;1.88;;;24.10;99.90;;;;;;5039585;28;20071;-69
2022/12/28 10:52:20;;;;;;;6.53;2.00;;;24.00;99.90;;;;;;5049913;28;20025;-69
2022/12/28 10:54:47;;;;;;;7.00;1.85;;;23.90;99.90;;;;;;5050381;28;20040;-70
2022/12/28 10:57:20;;;;;;;11.40;3.05;;;23.80;99.90;;;;;;5050292;28;20064;-69
2022/12/28 10:59:49;;;;;;;9.32;1.90;;;23.80;99.90;;;;;;5050350;28;20032;-70
2022/12/28 11:02:32;;;;;;;12.32;2.55;;;23.90;99.90;;;;;;5050189;28;20040;-70
2022/12/28 11:05:03;;;;;;;7.10;1.80;;;23.90;99.90;;;;;;5029010;28;20056;-70
2022/12/28 11:07:40;;;;;;;9.75;1.90;;;23.90;99.90;;;;;;5030098;28;20481;-71
2022/12/28 11:10:27;;;;;;;10.93;2.20;;;23.80;99.90;;;;;;5030168;28;20032;-71
2022/12/28 11:12:56;;;;;;;9.85;1.92;;;23.70;99.90;;;;;;5031226;28;20029;-71
2022/12/28 11:15:27;;;;;;;5.85;1.73;;;23.60;99.90;;;;;;5031024;28;20068;-72
2022/12/28 11:18:01;;;;;;;11.05;2.03;;;23.60;99.90;;;;;;5036660;28;20025;-71
2022/12/28 11:20:41;;;;;;;11.40;2.10;;;23.50;99.90;;;;;;5037285;28;20037;-71
2022/12/28 11:23:15;;;;;;;10.70;2.17;;;23.40;99.90;;;;;;5038345;28;20270;-71
2022/12/28 11:25:42;;;;;;;13.55;2.20;;;23.40;99.90;;;;;;5048087;28;20100;-73
2022/12/28 11:28:16;;;;;;;15.65;2.50;;;23.30;99.90;;;;;;5042260;28;20032;-71
2022/12/28 11:30:44;;;;;;;7.55;2.38;;;23.30;99.90;;;;;;5043797;28;20036;-67
2022/12/28 11:33:31;;;;;;;7.97;2.28;;;23.20;99.90;;;;;;5048778;28;20111;-70
2022/12/28 11:36:00;;;;;;;10.07;2.63;;;23.20;99.90;;;;;;5029803;28;20029;-70
2022/12/28 11:38:45;;;;;;;8.15;1.85;;;23.10;99.90;;;;;;5042203;28;20123;-70
2022/12/28 11:41:41;;;;;;;10.35;3.10;;;23.10;99.90;;;;;;5034146;28;20033;-69
2022/12/28 11:44:21;;;;;;;8.80;2.00;;;23.10;99.90;;;;;;5043769;28;20312;-70
2022/12/28 11:47:03;;;;;;;9.10;2.00;;;23.00;99.90;;;;;;5043331;28;20094;-69
2022/12/28 11:49:33;;;;;;;12.15;3.47;;;22.90;99.90;;;;;;5041980;28;20040;-70
2022/12/28 11:52:22;;;;;;;10.05;1.95;;;22.90;99.90;;;;;;5029756;28;20508;-70
2022/12/28 11:54:54;;;;;;;12.63;2.30;;;22.80;99.90;;;;;;5044444;28;20025;-70
2022/12/28 11:57:40;;;;;;;14.18;2.45;;;22.80;99.90;;;;;;5049321;28;20036;-72
2022/12/28 12:00:19;;;;;;;9.32;2.13;;;22.80;99.90;;;;;;5037326;28;20021;-72
2022/12/28 12:02:49;;;;;;;15.27;2.67;;;22.60;99.90;;;;;;5029541;28;20068;-71
2022/12/28 12:05:37;;;;;;;14.57;2.63;;;22.60;99.90;;;;;;5029499;28;20026;-71
2022/12/28 12:08:14;;;;;;;9.32;3.35;;;22.50;99.90;;;;;;5029455;28;20598;-70
2022/12/28 12:10:45;;;;;;;9.13;2.88;;;22.50;99.90;;;;;;5029778;28;20025;-70
2022/12/28 12:13:25;;;;;;;10.50;3.38;;;22.40;99.90;;;;;;5030883;28;20101;-69
2022/12/28 12:16:04;;;;;;;8.27;2.65;;;22.30;99.90;;;;;;5039280;28;20029;-70
2022/12/28 12:18:45;;;;;;;10.90;3.55;;;22.30;99.90;;;;;;5045896;28;20640;-70
2022/12/28 12:21:44;;;;;;;12.73;3.05;;;22.30;99.90;;;;;;5030770;28;20115;-70
2022/12/28 12:24:43;;;;;;;12.35;3.08;;;22.30;99.90;;;;;;5041699;28;20517;-70
2022/12/28 12:27:39;;;;;;;15.43;2.72;;;22.20;99.90;;;;;;5031817;28;20069;-70
2022/12/28 12:30:15;;;;;;;16.48;3.47;;;22.10;99.90;;;;;;5037803;28;20037;-70
2022/12/28 12:33:03;;;;;;;10.30;2.90;;;22.00;99.90;;;;;;5049253;28;20520;-71
2022/12/28 12:35:40;;;;;;;11.52;3.38;;;21.90;99.90;;;;;;5042591;28;20037;-70
2022/12/28 12:38:23;;;;;;;9.45;3.00;;;21.80;99.90;;;;;;5050696;28;20049;-69
2022/12/28 12:41:24;;;;;;;9.52;2.58;;;21.70;99.90;;;;;;5043668;28;20037;-69
2022/12/28 12:44:12;;;;;;;10.27;2.45;;;21.60;99.90;;;;;;5049422;28;20428;-70
2022/12/28 12:47:07;;;;;;;10.80;3.05;;;21.60;99.90;;;;;;5039149;28;20029;-70
2022/12/28 12:50:15;;;;;;;10.57;2.47;;;21.50;99.90;;;;;;5042064;28;20733;-69
2022/12/28 12:52:54;;;;;;;11.82;2.33;;;21.50;99.90;;;;;;5042393;28;20033;-71
2022/12/28 12:55:40;;;;;;;15.32;3.22;;;21.60;99.90;;;;;;5034059;28;20041;-72
2022/12/28 12:58:29;;;;;;;9.57;2.65;;;21.60;99.90;;;;;;5032796;28;20478;-71
2022/12/28 13:01:18;;;;;;;14.27;2.70;;;21.50;99.90;;;;;;5032447;28;20505;-70
2022/12/28 13:03:50;;;;;;;12.82;2.67;;;21.40;99.90;;;;;;5032568;28;20028;-70
2022/12/28 13:06:20;;;;;;;13.05;3.67;;;21.40;99.90;;;;;;5032543;28;20470;-70
2022/12/28 13:08:54;;;;;;;11.40;2.28;;;21.30;99.90;;;;;;5046076;28;20119;-70
2022/12/28 13:11:23;;;;;;;9.48;3.20;;;21.20;99.90;;;;;;5052400;28;20070;-70
2022/12/28 13:13:53;;;;;;;11.13;2.28;;;21.20;99.90;;;;;;5052276;28;20058;-69
2022/12/28 13:16:23;;;;;;;15.50;3.30;;;21.10;99.90;;;;;;5052173;28;20032;-68
2022/12/28 13:19:05;;;;;;;14.63;4.85;;;21.10;99.90;;;;;;5051422;28;20021;-69
2022/12/28 13:21:45;;;;;;;13.43;3.25;;;21.00;99.90;;;;;;5032213;28;20558;-69
2022/12/28 13:24:19;;;;;;;13.48;3.67;;;21.00;99.90;;;;;;5036439;28;20104;-70
2022/12/28 13:26:47;;;;;;;13.18;3.28;;;20.90;99.90;;;;;;5032232;28;20044;-70
2022/12/28 13:29:20;;;;;;;18.33;3.65;;;20.90;99.90;;;;;;5037392;28;20055;-70
2022/12/28 13:31:50;;;;;;;15.63;3.63;;;20.80;99.90;;;;;;5042409;28;20033;-70
2022/12/28 13:34:29;;;;;;;15.60;3.30;;;20.80;99.90;;;;;;5033195;28;20433;-70
2022/12/28 13:37:02;;;;;;;13.80;3.20;;;20.80;99.90;;;;;;5034223;28;20033;-69
2022/12/28 13:39:32;;;;;;;13.45;2.55;;;20.70;99.90;;;;;;5043523;28;20090;-70
2022/12/28 13:42:13;;;;;;;13.88;3.20;;;20.70;99.90;;;;;;5050167;28;20083;-70
2022/12/28 13:44:50;;;;;;;8.45;2.97;;;20.60;99.90;;;;;;5047827;28;20028;-70